Columbus, North Carolina
Current Conditions -  °F | °C
As of 4:15 AM on Saturday 22 Nov 2014 (Local Time) from KFQD Reporting Station
Clear Clear  
Wind Chill: 26°   Ceiling: Unl
Heat Index: 26°   Visibility: 10mi
Dew Point: 19°   Wind: 0mph
Humidity: 75%   Direction: NA
Pressure: 30.53"   Gusts: NA
Location:  35.25°N, 82.2°W
Report Text: KFQD 220915Z AUTO 00000KT 10SM CLR M03/M07 A3053 RMK AO2 T10311070
Loading
Personal Weather Stations






























Interactive Weather Map New forecast layout! Learn more

10-Day Weather Forecast

Advertisements
Track Severe Weather on mobile